Time;durP1;ratioP1;P1;durP2;ratioP2;P2;SDS_P1;SDS_P2;PMS_P1;PMS_P2;Temp;Humidity;BMP_temperature;BMP_pressure;BME280_temperature;BME280_humidity;BME280_pressure;Samples;Min_cycle;Max_cycle;Signal;HPM_P1;HPM_P2
2022/05/15 00:02:37;;;;;;;24.33;6.22;;;;;;;21.51;56.67;101941.88;5046015;28;20297;-51
2022/05/15 00:05:03;;;;;;;27.17;6.25;;;;;;;21.85;55.64;101947.44;5065249;28;20034;-54
2022/05/15 00:07:29;;;;;;;32.72;6.43;;;;;;;21.99;54.92;101947.97;5067018;28;20029;-52
2022/05/15 00:09:55;;;;;;;27.40;6.57;;;;;;;21.92;55.28;101942.66;5057915;28;20040;-53
2022/05/15 00:12:20;;;;;;;29.93;7.20;;;;;;;21.86;55.19;101944.47;5070688;28;20294;-50
2022/05/15 00:14:48;;;;;;;25.57;7.20;;;;;;;21.84;55.23;101948.50;5061181;28;20037;-52
2022/05/15 00:17:14;;;;;;;;;;;;;;;21.87;55.68;101945.31;5063972;28;20274;-51
2022/05/15 00:19:40;;;;;;;27.40;5.93;;;;;;;21.91;55.73;101938.28;5068315;28;19924;-54
2022/05/15 00:22:09;;;;;;;30.80;7.23;;;;;;;21.67;56.83;101937.56;5057670;28;20045;-55
2022/05/15 00:24:36;;;;;;;33.47;8.50;;;;;;;21.55;57.78;101930.25;5068805;28;20271;-52
2022/05/15 00:27:02;;;;;;;23.33;5.90;;;;;;;21.00;60.09;101929.72;5062828;28;20266;-49
2022/05/15 00:29:28;;;;;;;32.00;6.63;;;;;;;21.43;59.01;101932.19;5060313;28;20338;-54
2022/05/15 00:31:53;;;;;;;27.23;6.10;;;;;;;21.38;59.48;101929.38;5070264;28;20041;-54
2022/05/15 00:34:19;;;;;;;23.15;6.57;;;;;;;21.51;58.88;101933.69;5057356;28;20092;-54
2022/05/15 00:36:44;;;;;;;26.27;7.07;;;;;;;21.48;59.25;101932.31;5066699;28;20025;-52
2022/05/15 00:39:11;;;;;;;29.35;6.88;;;;;;;21.43;59.76;101932.19;5064101;28;20049;-51
2022/05/15 00:41:38;;;;;;;22.37;7.10;;;;;;;21.44;59.85;101929.25;5059438;28;20067;-51
2022/05/15 00:44:05;;;;;;;31.88;7.15;;;;;;;21.33;60.53;101928.22;5070204;28;20273;-50
2022/05/15 00:46:33;;;;;;;33.73;7.07;;;;;;;21.30;60.64;101930.56;5057697;28;20056;-49
2022/05/15 00:49:04;;;;;;;34.23;7.37;;;;;;;21.42;60.61;101925.09;5058334;28;20267;-52
2022/05/15 00:51:32;;;;;;;37.90;7.83;;;;;;;21.23;61.69;101928.03;5065633;28;20282;-51
2022/05/15 00:54:28;;;;;;;37.77;7.13;;;;;;;21.37;61.89;101925.00;5056936;28;20406;-53
2022/05/15 00:57:18;;;;;;;41.87;7.00;;;;;;;21.06;63.90;101927.91;5048478;28;20326;-48
2022/05/15 01:00:13;;;;;;;33.20;7.23;;;;;;;20.78;66.58;101924.88;5061775;28;20286;-53
2022/05/15 01:02:43;;;;;;;39.50;8.00;;;;;;;20.40;69.99;101926.19;5043498;28;20286;-52
2022/05/15 01:05:11;;;;;;;34.73;6.90;;;;;;;20.43;70.55;101930.31;5066854;28;20293;-48
2022/05/15 01:07:37;;;;;;;28.83;7.57;;;;;;;20.84;68.91;101925.00;5071027;28;20338;-51
2022/05/15 01:10:04;;;;;;;25.03;8.00;;;;;;;21.11;66.44;101922.63;5059402;28;20271;-50
2022/05/15 01:12:33;;;;;;;28.83;7.20;;;;;;;21.17;66.24;101912.63;5071585;28;20056;-53
2022/05/15 01:15:00;;;;;;;25.07;7.00;;;;;;;21.06;66.60;101917.03;5064602;28;20876;-49
2022/05/15 01:17:28;;;;;;;34.77;7.37;;;;;;;20.98;66.87;101910.06;5064069;28;20277;-49
2022/05/15 01:20:02;;;;;;;26.33;6.65;;;;;;;20.47;69.88;101910.56;5073014;28;20341;-48
2022/05/15 01:22:28;;;;;;;26.80;5.83;;;;;;;20.52;69.32;101919.91;5044364;28;20028;-48
2022/05/15 01:24:54;;;;;;;31.75;6.68;;;;;;;20.67;68.54;101912.09;5068475;28;20274;-47
2022/05/15 01:27:20;;;;;;;32.88;7.68;;;;;;;20.33;70.63;101917.31;5068105;28;20516;-48
2022/05/15 01:29:48;;;;;;;35.20;7.47;;;;;;;20.42;69.58;101926.75;5062247;28;20037;-48
2022/05/15 01:32:16;;;;;;;27.43;6.17;;;;;;;20.31;71.18;101924.88;5072537;28;20277;-51
2022/05/15 01:34:42;;;;;;;25.80;7.10;;;;;;;20.28;71.40;101919.88;5062044;28;20266;-49
2022/05/15 01:37:10;;;;;;;26.52;6.32;;;;;;;20.26;72.08;101922.00;5062860;28;20318;-52
2022/05/15 01:39:37;;;;;;;52.57;11.23;;;;;;;20.60;69.85;101923.09;5056579;28;20110;-51
2022/05/15 01:42:03;;;;;;;33.33;6.73;;;;;;;20.45;70.84;101920.03;5072169;28;20304;-49
2022/05/15 01:44:31;;;;;;;67.10;20.93;;;;;;;20.17;72.88;101916.94;5059955;28;20146;-50
2022/05/15 01:46:58;;;;;;;25.43;6.87;;;;;;;20.42;72.16;101910.47;5067784;28;20267;-50
2022/05/15 01:49:24;;;;;;;24.85;6.53;;;;;;;20.19;74.34;101912.09;5054954;28;20306;-51
2022/05/15 01:51:51;;;;;;;44.13;12.70;;;;;;;20.18;74.43;101915.03;5062336;28;20052;-50
2022/05/15 01:54:17;;;;;;;36.15;7.72;;;;;;;20.14;74.77;101913.84;5071067;28;20328;-51
2022/05/15 01:56:43;;;;;;;32.47;7.70;;;;;;;20.34;74.02;101918.97;5073300;28;20196;-50
2022/05/15 01:59:10;;;;;;;28.27;6.60;;;;;;;20.11;74.28;101915.16;5064479;28;20055;-51
2022/05/15 02:01:37;;;;;;;33.40;6.63;;;;;;;20.11;76.24;101911.59;5067848;28;20281;-48
2022/05/15 02:04:04;;;;;;;39.17;7.68;;;;;;;20.43;72.97;101914.84;5067464;28;20269;-50
2022/05/15 02:06:30;;;;;;;37.30;8.57;;;;;;;20.20;74.75;101910.22;5057829;28;20037;-48
2022/05/15 02:08:57;;;;;;;35.30;7.53;;;;;;;19.88;76.54;101903.16;5070505;28;20270;-50
2022/05/15 02:11:22;;;;;;;37.33;7.53;;;;;;;20.13;75.05;101907.59;5072062;28;20057;-50
2022/05/15 02:13:48;;;;;;;30.67;7.60;;;;;;;19.89;76.81;101898.53;5075992;28;20262;-50
2022/05/15 02:16:14;;;;;;;24.45;6.45;;;;;;;20.07;75.59;101897.69;5058563;28;20037;-49
2022/05/15 02:18:40;;;;;;;36.17;8.02;;;;;;;20.10;74.95;101904.53;5069779;28;20044;-51
2022/05/15 02:21:06;;;;;;;36.15;8.20;;;;;;;19.96;76.45;101904.75;5064264;28;20040;-51
2022/05/15 02:23:32;;;;;;;32.03;8.10;;;;;;;19.88;77.09;101905.88;5062321;28;20048;-49
2022/05/15 02:25:58;;;;;;;31.25;7.80;;;;;;;20.02;76.14;101902.97;5070968;28;20036;-50
2022/05/15 02:28:24;;;;;;;30.88;6.95;;;;;;;20.27;74.70;101900.06;5055106;28;20029;-49
2022/05/15 02:30:50;;;;;;;37.92;8.15;;;;;;;20.01;75.72;101898.59;5062463;28;20041;-47
2022/05/15 02:33:16;;;;;;;;;;;;;;;20.16;76.65;101890.84;5064605;28;20037;-49
2022/05/15 02:35:41;;;;;;;29.03;7.37;;;;;;;20.11;77.58;101895.31;5068541;28;19912;-49
2022/05/15 02:38:07;;;;;;;32.70;6.97;;;;;;;20.16;77.25;101895.44;5057983;28;20101;-52
2022/05/15 02:40:33;;;;;;;37.63;6.70;;;;;;;20.26;76.38;101900.28;5058712;28;20282;-48
2022/05/15 02:42:58;;;;;;;39.43;7.67;;;;;;;19.88;78.23;101897.75;5067502;28;20047;-51
2022/05/15 02:45:24;;;;;;;28.70;7.60;;;;;;;20.04;79.42;101900.84;5066631;28;20271;-51
2022/05/15 02:47:51;;;;;;;32.00;6.93;;;;;;;19.89;81.03;101902.09;5059141;28;20041;-46
2022/05/15 02:53:03;;;;;;;34.60;7.10;;;;;;;19.89;84.11;101898.53;5066674;28;20266;-52
2022/05/15 02:55:28;;;;;;;29.98;7.03;;;;;;;19.66;85.58;101899.31;5066377;28;20277;-49
2022/05/15 02:57:54;;;;;;;41.67;8.70;;;;;;;20.13;80.97;101904.91;5058898;28;20029;-50
2022/05/15 03:00:23;;;;;;;27.50;6.28;;;;;;;20.09;81.45;101892.00;5056857;28;20033;-50
2022/05/15 03:02:49;;;;;;;32.30;7.37;;;;;;;20.12;80.06;101894.25;5068410;28;20041;-52
2022/05/15 03:05:18;;;;;;;29.80;7.25;;;;;;;19.78;81.99;101889.31;5064479;28;20285;-48
2022/05/15 03:07:44;;;;;;;31.73;7.33;;;;;;;19.40;86.70;101891.31;5061009;28;20120;-49
2022/05/15 03:10:14;;;;;;;37.77;8.13;;;;;;;19.73;85.48;101886.47;5054947;28;20296;-52
2022/05/15 03:12:39;;;;;;;37.93;7.43;;;;;;;19.77;81.66;101885.78;5069115;28;20282;-50
2022/05/15 03:15:07;;;;;;;34.50;7.15;;;;;;;19.75;83.86;101881.66;5063097;28;20277;-47
2022/05/15 03:17:34;;;;;;;29.87;7.33;;;;;;;19.87;81.30;101887.94;5061419;28;20041;-48
2022/05/15 03:20:02;;;;;;;30.53;8.23;;;;;;;20.11;79.13;101887.16;5069633;28;20282;-48
2022/05/15 03:22:27;;;;;;;26.47;7.07;;;;;;;19.96;79.25;101882.19;5040661;28;20266;-51
2022/05/15 03:24:53;;;;;;;34.23;7.70;;;;;;;19.85;79.02;101879.22;5067806;28;20281;-52
2022/05/15 03:27:18;;;;;;;31.70;6.70;;;;;;;19.54;84.47;101869.44;5053800;28;20044;-50
2022/05/15 03:29:44;;;;;;;32.90;7.43;;;;;;;19.33;85.64;101880.53;5053858;28;20267;-49
2022/05/15 03:32:09;;;;;;;30.45;6.95;;;;;;;19.34;85.39;101882.19;5071115;28;20033;-50
2022/05/15 03:34:35;;;;;;;34.22;6.95;;;;;;;19.67;82.33;101868.41;5059125;28;20080;-49
2022/05/15 03:37:00;;;;;;;36.15;7.93;;;;;;;19.85;79.96;101875.66;5065867;28;20101;-49
2022/05/15 03:39:26;;;;;;;36.77;7.10;;;;;;;19.80;80.32;101864.66;5054580;28;20064;-49
2022/05/15 03:41:52;;;;;;;27.65;6.90;;;;;;;19.85;80.31;101867.50;5068803;28;20141;-50
2022/05/15 03:44:18;;;;;;;35.20;7.55;;;;;;;19.30;86.75;101870.16;5057033;28;20029;-55
2022/05/15 03:46:44;;;;;;;28.33;6.80;;;;;;;19.28;89.26;101872.28;5068838;28;20042;-51
2022/05/15 03:49:13;;;;;;;34.67;6.85;;;;;;;19.23;90.81;101864.00;5053486;28;20084;-51
2022/05/15 03:51:39;;;;;;;30.33;7.47;;;;;;;19.42;89.45;101867.50;5066902;28;20033;-48
2022/05/15 03:54:04;;;;;;;35.75;7.50;;;;;;;19.75;87.12;101870.78;5057721;28;20408;-48
2022/05/15 03:59:20;;;;;;;28.70;6.40;;;;;;;19.70;86.56;101866.03;5051512;28;20033;-50
2022/05/15 04:01:46;;;;;;;35.03;7.47;;;;;;;19.58;86.27;101866.00;5056141;28;20286;-50
2022/05/15 04:04:11;;;;;;;36.03;6.03;;;;;;;19.77;87.20;101868.66;5070783;28;20347;-50
2022/05/15 04:06:38;;;;;;;25.40;6.00;;;;;;;19.65;86.70;101865.09;5072234;28;20033;-47
2022/05/15 04:09:04;;;;;;;25.93;5.70;;;;;;;19.51;89.21;101862.56;5065265;28;20089;-52
2022/05/15 04:11:31;;;;;;;37.03;7.47;;;;;;;19.53;87.38;101862.38;5065328;28;20334;-48
2022/05/15 04:13:57;;;;;;;32.90;7.75;;;;;;;19.71;86.12;101866.88;5057605;28;20792;-50
2022/05/15 04:16:23;;;;;;;27.15;6.38;;;;;;;19.84;85.66;101863.97;5069908;28;20033;-53
2022/05/15 04:18:49;;;;;;;28.30;5.95;;;;;;;19.77;86.69;101874.09;5054267;28;20033;-53
2022/05/15 04:21:14;;;;;;;32.33;6.72;;;;;;;19.62;88.49;101864.53;5063007;28;20036;-52
2022/05/15 04:23:40;;;;;;;29.65;6.55;;;;;;;19.72;87.13;101863.97;5060236;28;20041;-49
2022/05/15 04:26:06;;;;;;;33.17;8.35;;;;;;;19.50;88.57;101863.63;5070456;28;20071;-51
2022/05/15 04:28:31;;;;;;;27.27;6.13;;;;;;;19.67;87.33;101861.09;5053518;28;20033;-54
2022/05/15 04:30:57;;;;;;;26.80;5.50;;;;;;;19.70;85.44;101857.91;5061235;28;20029;-51
2022/05/15 04:33:22;;;;;;;32.60;6.53;;;;;;;19.66;85.21;101861.34;5065932;28;20063;-51
2022/05/15 04:35:48;;;;;;;28.50;6.17;;;;;;;19.90;81.82;101867.63;5072114;28;20032;-53
2022/05/15 04:38:13;;;;;;;32.50;6.97;;;;;;;20.17;80.06;101868.06;5061310;28;20044;-53
2022/05/15 04:40:39;;;;;;;35.03;7.28;;;;;;;19.88;81.57;101869.75;5073143;28;20121;-50
2022/05/15 04:43:04;;;;;;;31.17;7.05;;;;;;;19.61;83.34;101870.16;5066252;28;20041;-55
2022/05/15 04:45:30;;;;;;;25.23;7.30;;;;;;;19.76;83.70;101872.44;5066117;28;20048;-54
2022/05/15 04:47:56;;;;;;;30.38;6.10;;;;;;;19.70;84.72;101870.66;5057797;28;20037;-52
2022/05/15 04:50:22;;;;;;;25.23;6.20;;;;;;;19.55;84.47;101871.09;5069347;28;20056;-49
2022/05/15 04:52:48;;;;;;;25.73;6.80;;;;;;;19.58;84.42;101871.44;5077606;28;20036;-49
2022/05/15 04:55:15;;;;;;;33.25;6.40;;;;;;;20.14;80.89;101882.13;5068051;28;20053;-51
2022/05/15 04:57:42;;;;;;;27.43;6.67;;;;;;;19.88;82.58;101881.44;5070601;28;20045;-53
2022/05/15 05:00:13;;;;;;;31.97;6.50;;;;;;;19.84;83.07;101879.44;5060849;28;20283;-50
2022/05/15 05:02:38;;;;;;;26.67;7.67;;;;;;;19.95;83.21;101885.97;5072948;28;20072;-53
2022/05/15 05:05:05;;;;;;;36.47;7.30;;;;;;;20.01;81.59;101887.75;5065646;28;20335;-52
2022/05/15 05:07:31;;;;;;;27.33;6.80;;;;;;;20.16;81.14;101888.13;5065458;28;20041;-51
2022/05/15 05:09:57;;;;;;;37.50;7.73;;;;;;;20.06;81.86;101893.28;5057141;28;20275;-50
2022/05/15 05:12:22;;;;;;;31.83;7.22;;;;;;;20.20;80.84;101885.78;5073864;28;20063;-52
2022/05/15 05:14:48;;;;;;;22.63;6.07;;;;;;;20.03;81.69;101885.63;5063175;28;20043;-54
2022/05/15 05:17:14;;;;;;;33.78;7.18;;;;;;;20.13;80.93;101893.19;5067531;28;20042;-54
2022/05/15 05:19:41;;;;;;;32.63;8.35;;;;;;;20.15;81.57;101888.34;5057071;28;20033;-54
2022/05/15 05:22:06;;;;;;;28.45;8.23;;;;;;;20.23;78.70;101892.63;5073482;28;20041;-51
2022/05/15 05:24:33;;;;;;;36.63;6.87;;;;;;;20.20;79.17;101889.31;5060387;28;20089;-54
2022/05/15 05:26:59;;;;;;;31.70;8.07;;;;;;;20.20;79.95;101886.59;5069797;28;20033;-54
2022/05/15 05:29:25;;;;;;;32.50;6.90;;;;;;;20.23;80.10;101884.47;5056880;28;20293;-53
2022/05/15 05:31:51;;;;;;;21.35;6.68;;;;;;;20.35;80.38;101888.84;5071273;28;20052;-53
2022/05/15 05:34:17;;;;;;;39.83;7.57;;;;;;;20.45;79.54;101896.41;5059862;28;20037;-52
2022/05/15 05:36:44;;;;;;;29.10;6.80;;;;;;;20.46;79.83;101887.19;5071028;28;20041;-54
2022/05/15 05:39:09;;;;;;;35.88;8.35;;;;;;;20.40;80.49;101888.16;5056745;28;20281;-49
2022/05/15 05:41:34;;;;;;;23.23;7.17;;;;;;;20.47;81.11;101890.75;5068763;28;20041;-53
2022/05/15 05:44:00;;;;;;;34.20;8.10;;;;;;;20.72;80.76;101890.47;5060667;28;20282;-52
2022/05/15 05:46:29;;;;;;;27.85;6.95;;;;;;;20.83;81.07;101891.56;5073053;28;20101;-48
2022/05/15 05:48:57;;;;;;;37.87;8.43;;;;;;;20.85;79.07;101894.03;5062883;28;20055;-53
2022/05/15 05:51:23;;;;;;;23.23;6.27;;;;;;;20.80;79.46;101891.22;5066064;28;20267;-50
2022/05/15 05:53:49;;;;;;;35.53;7.53;;;;;;;21.11;79.29;101889.97;5070496;28;20301;-49
2022/05/15 05:56:15;;;;;;;26.80;7.53;;;;;;;21.17;78.38;101885.44;5059748;28;20096;-50
2022/05/15 05:58:41;;;;;;;28.17;7.43;;;;;;;21.26;76.00;101889.44;5071785;28;20037;-49
2022/05/15 06:01:07;;;;;;;25.15;8.25;;;;;;;21.11;79.12;101876.38;5064456;28;20108;-50
2022/05/15 06:06:17;;;;;;;31.70;7.43;;;;;;;21.17;79.94;101882.72;5072715;28;20071;-52
2022/05/15 06:08:42;;;;;;;27.65;7.07;;;;;;;21.26;79.54;101889.44;5056258;28;20282;-54
2022/05/15 06:11:09;;;;;;;30.17;8.07;;;;;;;21.32;77.96;101884.91;5064477;28;20053;-51
2022/05/15 06:13:35;;;;;;;30.73;8.27;;;;;;;21.16;75.73;101881.06;5064067;28;20034;-52
2022/05/15 06:16:01;;;;;;;38.37;8.33;;;;;;;21.27;77.74;101890.25;5071476;28;20285;-50
2022/05/15 06:18:27;;;;;;;24.70;7.75;;;;;;;21.40;77.05;101889.97;5055867;28;20287;-48
2022/05/15 06:20:52;;;;;;;25.35;7.28;;;;;;;21.78;73.79;101899.41;5062036;28;20024;-52
2022/05/15 06:23:18;;;;;;;26.73;7.47;;;;;;;21.80;75.28;101901.88;5066012;28;20045;-50
2022/05/15 06:25:44;;;;;;;30.50;9.30;;;;;;;21.94;74.28;101899.66;5068968;28;20044;-49
2022/05/15 06:28:09;;;;;;;31.33;8.32;;;;;;;21.97;74.97;101901.91;5059163;28;20041;-51
2022/05/15 06:30:36;;;;;;;27.80;7.57;;;;;;;22.08;71.77;101899.34;5063237;28;20576;-52
2022/05/15 06:33:02;;;;;;;26.53;7.23;;;;;;;22.17;68.82;101901.41;5072515;28;20017;-49
2022/05/15 06:35:28;;;;;;;;;;;;;;;22.09;69.48;101895.56;5071581;28;20257;-51
2022/05/15 06:37:54;;;;;;;34.47;7.60;;;;;;;22.22;70.83;101897.13;5066733;28;19948;-53
2022/05/15 06:40:19;;;;;;;33.67;8.67;;;;;;;22.19;71.12;101896.53;5067176;28;20024;-51
2022/05/15 06:42:45;;;;;;;24.50;7.70;;;;;;;22.44;70.57;101897.16;5060508;28;20063;-53
2022/05/15 06:45:13;;;;;;;31.63;8.10;;;;;;;22.39;69.21;101899.81;5066660;28;20090;-52
2022/05/15 06:47:38;;;;;;;21.80;7.30;;;;;;;22.58;66.85;101897.66;5067895;28;20037;-52
2022/05/15 06:50:07;;;;;;;26.53;7.13;;;;;;;22.67;64.99;101896.19;5059209;28;20279;-52
2022/05/15 06:52:33;;;;;;;28.73;7.20;;;;;;;22.70;65.86;101897.56;5071550;28;20337;-54
2022/05/15 06:54:59;;;;;;;28.23;7.53;;;;;;;22.83;65.59;101904.53;5061222;28;20273;-54
2022/05/15 06:57:31;;;;;;;25.60;6.93;;;;;;;22.75;62.23;101905.81;5064765;28;20037;-50
2022/05/15 06:59:58;;;;;;;28.10;7.13;;;;;;;22.91;66.08;101906.84;5054753;28;20036;-50
2022/05/15 07:02:27;;;;;;;26.20;6.87;;;;;;;23.03;63.22;101902.06;5071240;28;20301;-49
2022/05/15 07:04:52;;;;;;;22.27;7.50;;;;;;;23.33;61.83;101903.56;5061107;28;20321;-49
2022/05/15 07:07:18;;;;;;;22.80;6.88;;;;;;;23.48;58.72;101905.63;5065407;28;20282;-50
2022/05/15 07:09:44;;;;;;;22.27;7.35;;;;;;;23.55;60.18;101905.44;5054812;28;20040;-49
2022/05/15 07:12:10;;;;;;;43.67;16.00;;;;;;;23.60;60.65;101902.75;5070898;28;20091;-50
2022/05/15 07:14:36;;;;;;;29.13;8.07;;;;;;;23.51;57.59;101896.09;5058736;28;20039;-49
2022/05/15 07:17:03;;;;;;;22.00;6.45;;;;;;;23.66;58.10;101905.53;5067356;28;20298;-51
2022/05/15 07:19:28;;;;;;;27.73;8.37;;;;;;;23.87;58.11;101899.16;5065695;28;20045;-51
2022/05/15 07:21:54;;;;;;;26.65;7.40;;;;;;;23.60;56.57;101901.91;5060172;28;20358;-50
2022/05/15 07:24:21;;;;;;;24.60;7.68;;;;;;;23.66;58.51;101900.91;5070918;28;20061;-51
2022/05/15 07:26:47;;;;;;;25.00;7.53;;;;;;;23.91;59.06;101900.28;5060094;28;20029;-55
2022/05/15 07:29:13;;;;;;;38.95;10.27;;;;;;;24.04;57.54;101900.97;5065894;28;20350;-50
2022/05/15 07:31:39;;;;;;;23.53;9.10;;;;;;;24.07;57.84;101895.00;5067030;28;20037;-51
2022/05/15 07:34:05;;;;;;;28.48;8.38;;;;;;;24.24;57.97;101899.50;5058685;28;20040;-52
2022/05/15 07:36:30;;;;;;;28.95;8.02;;;;;;;24.34;57.07;101907.75;5070981;28;20048;-55
2022/05/15 07:38:56;;;;;;;25.67;7.80;;;;;;;24.48;56.18;101908.94;5054511;28;20030;-53
2022/05/15 07:41:21;;;;;;;21.98;7.30;;;;;;;24.34;57.37;101908.59;5063164;28;20057;-52
2022/05/15 07:43:47;;;;;;;31.77;7.93;;;;;;;24.41;57.52;101905.59;5060894;28;20049;-52
2022/05/15 07:46:13;;;;;;;25.45;7.35;;;;;;;24.54;56.66;101908.97;5070670;28;20059;-51
2022/05/15 07:48:38;;;;;;;27.73;7.05;;;;;;;24.68;55.90;101907.41;5054030;28;20071;-55
2022/05/15 07:51:04;;;;;;;24.05;7.70;;;;;;;24.67;55.30;101911.22;5060309;28;20052;-49
2022/05/15 07:53:30;;;;;;;44.97;19.05;;;;;;;24.83;55.45;101905.88;5063051;28;20044;-53
2022/05/15 07:55:59;;;;;;;33.72;11.57;;;;;;;24.87;55.18;101905.06;5068542;28;20037;-53
2022/05/15 07:58:25;;;;;;;20.43;7.87;;;;;;;24.92;55.06;101904.28;5057329;28;20072;-50
2022/05/15 08:00:53;;;;;;;27.17;9.90;;;;;;;25.01;55.67;101902.66;5069902;28;20032;-51
2022/05/15 08:03:19;;;;;;;25.40;7.40;;;;;;;24.91;54.80;101905.34;5072494;28;20033;-49
2022/05/15 08:08:29;;;;;;;26.90;8.90;;;;;;;25.23;55.18;101904.38;5062554;28;19934;-53
2022/05/15 08:10:55;;;;;;;19.95;7.28;;;;;;;25.14;53.83;101905.97;5067488;28;20415;-53
2022/05/15 08:13:25;;;;;;;25.38;7.07;;;;;;;25.19;52.58;101906.00;5067148;28;20029;-53
2022/05/15 08:15:51;;;;;;;30.57;8.63;;;;;;;25.35;53.71;101896.72;5071073;28;20040;-51
2022/05/15 08:23:59;;;;;;;22.27;8.10;;;;;;;25.69;50.68;101898.19;5064824;28;20105;-50
2022/05/15 08:26:25;;;;;;;26.87;10.10;;;;;;;25.71;52.11;101903.41;5074089;28;20043;-51
2022/05/15 08:28:51;;;;;;;36.73;14.53;;;;;;;25.82;52.16;101894.06;5070231;28;21109;-52
2022/05/15 08:31:19;;;;;;;32.83;11.67;;;;;;;25.92;51.94;101894.09;5076534;28;20036;-53
2022/05/15 08:33:45;;;;;;;24.57;8.57;;;;;;;25.95;51.78;101889.16;5076589;28;20053;-52
2022/05/15 08:36:11;;;;;;;;;;;;;;;25.99;52.27;101893.00;5067805;28;20037;-53
2022/05/15 08:38:37;;;;;;;23.33;9.60;;;;;;;26.14;49.98;101884.75;5056479;28;19923;-50
2022/05/15 08:41:31;;;;;;;23.00;8.33;;;;;;;25.92;51.13;101877.66;5070706;28;20033;-51
2022/05/15 08:44:14;;;;;;;23.17;8.77;;;;;;;26.10;51.34;101874.63;5071741;28;20041;-48
2022/05/15 08:46:49;;;;;;;22.07;8.10;;;;;;;26.33;50.25;101874.06;5044923;28;20036;-50
2022/05/15 08:49:48;;;;;;;19.30;7.43;;;;;;;26.47;50.01;101868.00;5068489;28;20113;-52
2022/05/15 08:52:24;;;;;;;19.57;8.00;;;;;;;26.61;49.12;101863.53;5051981;28;20057;-53
2022/05/15 08:55:21;;;;;;;28.15;8.05;;;;;;;26.73;49.34;101863.22;5047625;28;20036;-49
2022/05/15 08:57:46;;;;;;;24.90;8.40;;;;;;;26.90;47.90;101867.59;5064575;28;20048;-48
2022/05/15 09:00:15;;;;;;;23.52;7.93;;;;;;;26.89;47.35;101865.94;5057140;28;20045;-49
2022/05/15 09:02:43;;;;;;;22.73;6.50;;;;;;;27.18;46.67;101870.72;5060732;28;20037;-51
2022/05/15 09:05:10;;;;;;;21.20;7.83;;;;;;;27.42;46.91;101867.28;5069520;28;20037;-53
2022/05/15 09:07:48;;;;;;;16.23;6.33;;;;;;;27.39;45.33;101871.44;5068588;28;20033;-52
2022/05/15 09:10:23;;;;;;;15.97;5.30;;;;;;;27.41;45.34;101869.22;5060298;28;20059;-51
2022/05/15 09:13:01;;;;;;;23.93;8.23;;;;;;;27.66;47.04;101863.81;5072251;28;20033;-50
2022/05/15 09:15:30;;;;;;;20.90;7.60;;;;;;;27.91;46.30;101863.63;5066985;28;20041;-50
2022/05/15 09:17:58;;;;;;;19.67;7.60;;;;;;;27.86;46.13;101874.66;5061964;28;20041;-50
2022/05/15 09:20:24;;;;;;;19.03;6.80;;;;;;;28.03;45.16;101873.41;5058074;28;20049;-54
2022/05/15 09:23:18;;;;;;;18.92;7.68;;;;;;;28.45;43.85;101871.91;5072097;28;20037;-48
2022/05/15 09:25:54;;;;;;;22.60;6.57;;;;;;;28.79;41.58;101870.16;5058439;28;20060;-51
2022/05/15 09:28:21;;;;;;;18.63;5.90;;;;;;;29.14;40.55;101862.50;5059756;28;20102;-57
2022/05/15 09:30:49;;;;;;;24.57;6.77;;;;;;;29.79;40.04;101862.91;5072113;28;20039;-49
2022/05/15 09:33:35;;;;;;;23.83;7.27;;;;;;;30.29;38.89;101858.72;5064829;28;20091;-52
2022/05/15 09:36:22;;;;;;;26.80;9.67;;;;;;;30.74;37.73;101864.44;5061801;28;20143;-50
2022/05/15 09:39:06;;;;;;;18.93;6.30;;;;;;;31.25;35.13;101867.22;5041064;28;20282;-50
2022/05/15 09:44:28;;;;;;;49.25;23.73;;;;;;;32.38;34.10;101862.72;5071130;28;20037;-53
2022/05/15 09:47:18;;;;;;;27.50;11.73;;;;;;;32.81;31.68;101863.13;5054851;28;20029;-52
2022/05/15 09:49:45;;;;;;;30.30;13.98;;;;;;;33.69;30.04;101865.94;5058487;28;20049;-50
2022/05/15 09:52:38;;;;;;;24.85;10.10;;;;;;;33.59;29.10;101859.56;5067981;28;20044;-51
2022/05/15 09:55:19;;;;;;;31.75;8.05;;;;;;;34.28;27.17;101856.09;5068810;28;20043;-48
2022/05/15 09:58:05;;;;;;;23.30;8.95;;;;;;;34.94;26.90;101854.72;5068170;28;20097;-50
2022/05/15 10:00:34;;;;;;;15.10;6.13;;;;;;;34.93;24.05;101849.47;5068939;28;20032;-51
2022/05/15 10:03:16;;;;;;;30.13;6.80;;;;;;;35.26;23.95;101857.91;5065941;28;20056;-52
2022/05/15 10:05:42;;;;;;;18.80;6.55;;;;;;;35.28;23.45;101852.00;5068709;28;20033;-52
2022/05/15 10:08:30;;;;;;;22.08;6.05;;;;;;;35.84;23.72;101851.59;5065007;28;20037;-54
2022/05/15 10:11:08;;;;;;;20.10;6.55;;;;;;;36.39;23.28;101858.94;5070362;28;20021;-53
2022/05/15 10:13:43;;;;;;;18.30;6.45;;;;;;;36.83;23.03;101845.19;5067592;28;20032;-51
2022/05/15 10:16:17;;;;;;;16.45;4.13;;;;;;;37.01;22.27;101845.75;5064309;28;20104;-48
2022/05/15 10:19:08;;;;;;;15.63;4.22;;;;;;;37.41;21.81;101846.03;5065556;28;20049;-54
2022/05/15 10:21:47;;;;;;;14.25;4.32;;;;;;;37.43;22.62;101852.84;5060073;28;20036;-53
2022/05/15 10:24:37;;;;;;;14.02;4.57;;;;;;;37.49;22.25;101842.28;5067871;28;20064;-49
2022/05/15 10:27:10;;;;;;;11.70;3.70;;;;;;;36.96;21.96;101851.53;5068159;28;20036;-51
2022/05/15 10:29:54;;;;;;;15.77;4.72;;;;;;;38.25;20.82;101851.75;5064412;28;20096;-50
2022/05/15 10:32:27;;;;;;;11.63;3.53;;;;;;;38.38;21.09;101844.06;5068852;28;20100;-53
2022/05/15 10:34:53;;;;;;;10.40;3.03;;;;;;;37.34;21.24;101846.66;5061783;28;20052;-49
2022/05/15 10:38:12;;;;;;;9.77;3.00;;;;;;;37.66;20.84;101837.53;5070293;28;20029;-49
2022/05/15 10:40:48;;;;;;;14.70;3.35;;;;;;;37.84;21.15;101841.59;5059518;28;20048;-50
2022/05/15 10:43:31;;;;;;;10.15;2.97;;;;;;;38.01;20.61;101840.44;5066126;28;20048;-53
2022/05/15 10:46:07;;;;;;;10.00;2.90;;;;;;;38.79;20.06;101841.78;5066530;28;20030;-52
2022/05/15 10:48:51;;;;;;;11.40;3.20;;;;;;;38.83;20.00;101833.50;5066889;28;20048;-48
2022/05/15 10:51:23;;;;;;;16.58;5.30;;;;;;;39.14;19.65;101828.94;5062615;28;20052;-53
2022/05/15 10:57:30;;;;;;;8.82;2.60;;;;;;;40.40;18.99;101833.09;5041252;28;20041;-53
2022/05/15 11:00:17;;;;;;;12.52;3.63;;;;;;;40.55;18.49;101827.66;5060775;28;20096;-52
2022/05/15 11:02:43;;;;;;;12.13;3.80;;;;;;;41.16;18.18;101822.00;5042174;28;20044;-50
2022/05/15 11:05:16;;;;;;;13.82;3.80;;;;;;;41.25;17.88;101819.69;5072992;28;20036;-54
2022/05/15 11:07:52;;;;;;;9.63;3.40;;;;;;;41.06;18.01;101822.66;5074781;28;20037;-51
2022/05/15 11:10:44;;;;;;;12.50;4.03;;;;;;;41.75;17.30;101817.75;5058282;28;20026;-52
2022/05/15 11:13:12;;;;;;;15.52;3.15;;;;;;;41.68;18.02;101810.06;5062026;28;20056;-54
2022/05/15 11:16:04;;;;;;;14.70;3.83;;;;;;;42.09;17.45;101809.16;5063970;28;20100;-53
2022/05/15 11:18:57;;;;;;;17.67;5.50;;;;;;;42.60;16.69;101809.47;5071093;28;20037;-54
2022/05/15 11:21:40;;;;;;;11.68;4.30;;;;;;;42.74;16.74;101803.88;5063644;28;20029;-54
2022/05/15 11:24:31;;;;;;;11.23;3.08;;;;;;;43.11;17.16;101807.59;5059957;28;20045;-50
2022/05/15 11:27:05;;;;;;;20.75;3.75;;;;;;;43.09;17.05;101808.00;5045583;28;20033;-54
2022/05/15 11:29:35;;;;;;;16.88;4.05;;;;;;;42.20;17.30;101792.38;5068027;28;20060;-54
2022/05/15 11:32:01;;;;;;;21.10;4.53;;;;;;;42.51;16.97;101788.13;5068162;28;20041;-50
2022/05/15 11:35:04;;;;;;;12.05;3.75;;;;;;;43.69;16.25;101787.94;5067989;28;20043;-50
2022/05/15 11:37:41;;;;;;;10.52;3.40;;;;;;;43.02;16.10;101779.06;5067699;28;20039;-53
2022/05/15 11:40:12;;;;;;;14.32;3.17;;;;;;;42.81;16.18;101774.97;5070707;28;20037;-53
2022/05/15 11:42:37;;;;;;;10.85;3.03;;;;;;;43.37;16.35;101777.50;5070136;28;20037;-53
2022/05/15 11:45:32;;;;;;;9.10;3.53;;;;;;;43.56;15.71;101777.09;5073388;28;20534;-50
2022/05/15 11:48:17;;;;;;;9.15;3.83;;;;;;;44.20;14.92;101777.41;5068290;28;20033;-49
2022/05/15 11:50:57;;;;;;;9.20;2.38;;;;;;;43.39;15.20;101767.47;5070209;28;20040;-52
2022/05/15 11:54:06;;;;;;;9.15;2.95;;;;;;;43.14;16.03;101761.81;5059886;28;20080;-51